Wolf, Ohio
Current Conditions -  °F | °C
As of 9:53 PM on Monday 20 Oct 2014 (Local Time) from KPHD Reporting Station
Overcast Overcast  
Wind Chill: 52°   Ceiling: 5500
Heat Index: 52°   Visibility: 10mi
Dew Point: 48°   Wind: 5mph
Humidity: 86%   Direction: 190°S
Pressure: 29.88"   Gusts: NA
Location:  40.2433°N, 81.534°W
Report Text: KPHD 210153Z AUTO 19004KT 10SM BKN055 OVC075 11/09 A2988 RMK AO2 RAB03E41 SLP120 P0002 T01110089
Loading
Personal Weather Stations






























Interactive Weather Map
Tropical Storm Tracking
New forecast layout! Learn more

10-Day Weather Forecast

Advertisements
Track Severe Weather on mobile